Michigan Logo

Saline, MI Single Family Real Estate Listings

29 Total Real Estate Listings * Click on table heading to sort
Date Posted Property Type Style Address Price Living Area Lot Size Price/Sq Ft.
2017-11-16 Single Family 1045 Melrose Court Saline, MI 48176 $365,000 2,092 sq. ft. $174
2017-11-15 Single Family 317 Michigan Avenue Saline, MI 48176 $355,000 2,956 sq. ft. 27,443 sq. ft. $120
2017-11-14 Single Family Cape Cod 3348 Oak Park Drive Saline, MI 48176 $615,000 5,766 sq. ft. 43,560 sq. ft. $107
2017-11-14 Single Family Colonial 340 Pembroke Drive Saline, MI 48176 $465,000 2,810 sq. ft. $165
2017-11-12 Single Family 202 Lewis Saline, MI 48167 $243,900 1,788 sq. ft. 15,246 sq. ft. $136
2017-11-06 Single Family 1488 Maplewood Drive Saline, MI 48176 $297,500 1,656 sq. ft. 3,920 sq. ft. $180
2017-10-27 Single Family Colonial 7531 Weber Road Saline, MI 48176 $449,000 2,062 sq. ft. 340,204 sq. ft. $218
2017-10-25 Single Family 3320 Oak Park Drive Saline, MI 48176 $250,000 2,101 sq. ft. 89,298 sq. ft. $119
2017-10-19 Single Family Ranch 795 Knollwood Court Saline, MI 48176 $219,900 1,008 sq. ft. 6,534 sq. ft. $218
2017-10-17 Single Family Colonial 386 Eastlook Drive Saline, MI 48176 $265,000 1,640 sq. ft. 10,019 sq. ft. $162
2017-10-09 Single Family 352 Arlington Drive Saline, MI 48176 $470,000 2,654 sq. ft. 17,424 sq. ft. $177
2017-10-06 Single Family Colonial 579 Rosebud Court Saline, MI 48176 $369,900 2,305 sq. ft. 20,909 sq. ft. $160
2017-10-04 Single Family Ranch 263 Mark Hannah Court Saline, MI 48176 $190,000 950 sq. ft. 7,841 sq. ft. $200
2017-09-23 Single Family Colonial 505 Eastlook Drive Saline, MI 48176 $239,900 1,640 sq. ft. 9,148 sq. ft. $146
2017-09-15 Single Family Ranch 401 Mills Road Saline, MI 48176 $348,000 1,940 sq. ft. 43,124 sq. ft. $179
2017-09-15 Single Family Ranch 205 Mckay Street Saline, MI 48176 $220,000 1,416 sq. ft. 11,326 sq. ft. $155
2017-09-05 Single Family Contemporary 0 Oak Park Drive Saline, MI 48176 $474,090 2,870 sq. ft. 52,708 sq. ft. $165
2017-08-18 Single Family Colonial 6925 Arkona Road Saline, MI 48176 $539,900 3,300 sq. ft. 1,466,230 sq. ft. $164
2017-08-09 Single Family Colonial 212 Michigan Avenue Saline, MI 48176 $319,900 2,451 sq. ft. 12,632 sq. ft. $131
2017-07-07 Single Family 459 Exeter Court Saline, MI 48176 $339,900 2,219 sq. ft. 13,504 sq. ft. $153
2017-06-19 Single Family 208 Ann Arbor Street Saline, MI 48176 $245,000 2,200 sq. ft. 9,583 sq. ft. $111
2017-06-16 Single Family 3404 Oak Park Drive Saline, MI 48176 $899,900 3,791 sq. ft. 84,506 sq. ft. $237
2017-05-30 Single Family 301 Harris Street Saline, MI 48176 $225,000 1,660 sq. ft. 14,810 sq. ft. $136
2017-05-09 Single Family Colonial 413 Bennett Street Saline, MI 48176 $335,400 2,010 sq. ft. $167
2017-05-09 Single Family Colonial 407 Bennett Street Saline, MI 48176 $292,400 1,600 sq. ft. $183
2017-03-03 Single Family 3404 Oak Park Drive Saline, MI 48176 $999,900 3,791 sq. ft. 167,270 sq. ft. $264
2017-02-06 Single Family 12911 Case Road Saline, MI 49236 $595,000 2,782 sq. ft. 1,838,668 sq. ft. $214
2017-01-12 Single Family 587 Sycamore Circle Saline, MI 48176 $286,500 1,984 sq. ft. $144
2016-10-26 Single Family Ranch 397 Arlington Drive Saline, MI 48176 $409,925 2,075 sq. ft. 20,038 sq. ft. $198